METAR Data

Data at: 1224 UTC 24 May 2022

METAR for:CYHZ (Halifax/Stanfield In, NS, CA)
Text:CYHZ 241200Z 01011G20KT 15SM FEW040 FEW160 SCT240 10/03 A3028 RMK SC1AC1CI3 SC TR SLP261
Temperature: 10.0°C ( 50°F)
Dewpoint: 3.0°C ( 37°F) [RH = 62%]
Pressure (altimeter):30.28 inches Hg (1025.5 mb) [Sea level pressure: 1026.1 mb]
Winds:from the N (10 degrees) at 13 MPH (11 knots; 5.7 m/s) gusting to 23 MPH (20 knots; 10.3 m/s)
Visibility: 15 sm ( 24 km)
Ceiling:at least 12,000 feet AGL
Clouds: few clouds at 4000 feet AGL, few clouds at 16000 feet AGL, scattered clouds at 24000 feet AGL